Time;durP1;ratioP1;P1;durP2;ratioP2;P2;SDS_P1;SDS_P2;PMS_P1;PMS_P2;Temp;Humidity;BMP_temperature;BMP_pressure;BME280_temperature;BME280_humidity;BME280_pressure;Samples;Min_cycle;Max_cycle;Signal;HPM_P1;HPM_P2
2022/09/02 00:00:10;;;;;;;0.45;0.40;;;18.80;53.00;;;;;;4915137;29;20866;-34
2022/09/02 00:02:41;;;;;;;0.65;0.30;;;18.80;53.10;;;;;;4914466;29;20192;-50
2022/09/02 00:05:13;;;;;;;0.45;0.30;;;18.90;53.20;;;;;;4905503;29;20217;-49
2022/09/02 00:07:44;;;;;;;0.20;0.20;;;18.80;53.00;;;;;;4893364;29;20203;-40
2022/09/02 00:10:15;;;;;;;1.55;0.40;;;18.90;53.10;;;;;;4876994;29;20225;-47
2022/09/02 00:12:45;;;;;;;0.32;0.32;;;18.90;53.00;;;;;;4876837;29;20201;-52
2022/09/02 00:15:16;;;;;;;0.73;0.35;;;18.90;53.10;;;;;;4877075;29;20230;-54
2022/09/02 00:17:47;;;;;;;0.60;0.30;;;18.90;53.00;;;;;;4883285;29;20293;-49
2022/09/02 00:20:20;;;;;;;0.30;0.28;;;18.90;53.00;;;;;;4895761;29;20228;-54
2022/09/02 00:22:50;;;;;;;0.30;0.30;;;18.90;53.10;;;;;;4880712;29;20698;-50
2022/09/02 00:25:21;;;;;;;0.65;0.40;;;18.90;53.10;;;;;;4877328;29;20225;-55
2022/09/02 00:27:52;;;;;;;0.50;0.40;;;18.90;53.10;;;;;;4877340;29;20284;-37
2022/09/02 00:30:23;;;;;;;0.40;0.40;;;19.00;53.10;;;;;;4876990;29;20209;-35
2022/09/02 00:32:54;;;;;;;0.80;0.43;;;19.00;53.10;;;;;;4876501;29;20561;-49
2022/09/02 00:35:26;;;;;;;0.60;0.40;;;19.00;53.10;;;;;;4877279;29;20221;-38
2022/09/02 00:37:57;;;;;;;0.28;0.28;;;19.00;53.10;;;;;;4877145;29;20540;-37
2022/09/02 00:40:28;;;;;;;0.50;0.30;;;19.00;53.10;;;;;;4876945;29;20236;-47
2022/09/02 00:43:00;;;;;;;0.60;0.40;;;19.00;53.10;;;;;;4881286;29;20197;-43
2022/09/02 00:45:30;;;;;;;0.30;0.30;;;19.00;53.00;;;;;;4895393;29;20701;-42
2022/09/02 00:48:01;;;;;;;0.40;0.40;;;19.00;53.00;;;;;;4886295;29;20587;-46
2022/09/02 00:50:37;;;;;;;0.75;0.30;;;19.00;53.00;;;;;;4876744;29;20201;-49
2022/09/02 00:53:11;;;;;;;1.10;0.30;;;19.00;53.00;;;;;;4877071;29;20680;-35
2022/09/02 01:19:10;;;;;;;0.40;0.30;;;19.10;52.90;;;;;;5648619;23;20267;-42
2022/09/02 01:21:57;;;;;;;0.30;0.30;;;19.10;52.90;;;;;;4892529;29;20584;-37
2022/09/02 01:24:35;;;;;;;0.22;0.22;;;19.10;52.90;;;;;;4893530;29;20696;-36
2022/09/02 01:27:14;;;;;;;0.85;0.40;;;19.10;52.80;;;;;;4893618;29;20521;-37
2022/09/02 01:29:45;;;;;;;0.60;0.25;;;19.10;52.80;;;;;;4881389;29;20593;-36
2022/09/02 01:32:16;;;;;;;1.15;0.50;;;19.20;52.90;;;;;;4894737;29;20204;-46
2022/09/02 01:34:47;;;;;;;0.40;0.40;;;19.20;52.90;;;;;;4893768;29;20720;-37
2022/09/02 01:37:19;;;;;;;1.52;0.40;;;19.20;52.90;;;;;;4895396;29;20197;-36
2022/09/02 01:39:51;;;;;;;0.60;0.40;;;19.20;52.90;;;;;;4879492;29;20213;-45
2022/09/02 01:42:22;;;;;;;0.75;0.45;;;19.20;52.90;;;;;;4878036;29;20248;-36
2022/09/02 01:44:53;;;;;;;0.40;0.40;;;19.20;52.90;;;;;;4913268;29;20220;-36
2022/09/02 01:47:25;;;;;;;0.45;0.40;;;19.20;52.90;;;;;;4912999;29;20212;-37
2022/09/02 01:49:56;;;;;;;0.80;0.32;;;19.20;52.90;;;;;;4894342;29;20204;-42
2022/09/02 01:52:30;;;;;;;1.25;0.50;;;19.20;52.90;;;;;;4895158;29;20657;-44
2022/09/02 01:55:03;;;;;;;0.30;0.30;;;19.20;52.90;;;;;;4894637;29;20760;-42
2022/09/02 01:57:34;;;;;;;0.93;0.40;;;19.20;52.90;;;;;;4921441;23;20782;-48
2022/09/02 02:00:06;;;;;;;0.50;0.30;;;19.20;52.90;;;;;;4894699;29;20200;-49
2022/09/02 02:02:37;;;;;;;0.30;0.30;;;19.30;53.00;;;;;;4894332;29;20304;-43
2022/09/02 02:05:08;;;;;;;0.60;0.22;;;19.30;53.00;;;;;;4894989;29;20319;-50
2022/09/02 02:07:41;;;;;;;0.30;0.30;;;19.30;52.90;;;;;;4893603;29;20212;-56
2022/09/02 02:10:13;;;;;;;0.30;0.30;;;19.30;52.90;;;;;;4894975;29;20228;-51
2022/09/02 02:12:44;;;;;;;0.20;0.20;;;19.30;52.90;;;;;;4894189;29;20211;-55
2022/09/02 02:15:17;;;;;;;0.40;0.30;;;19.30;52.90;;;;;;4894697;29;20278;-39
2022/09/02 02:17:48;;;;;;;0.73;0.40;;;19.30;52.80;;;;;;4912752;29;20276;-40
2022/09/02 02:20:20;;;;;;;0.35;0.25;;;19.30;52.80;;;;;;4912447;29;20243;-46
2022/09/02 02:22:53;;;;;;;1.08;0.30;;;19.30;52.80;;;;;;4911413;29;20211;-40
2022/09/02 02:25:24;;;;;;;0.35;0.30;;;19.30;52.80;;;;;;4910887;29;20703;-40
2022/09/02 02:27:55;;;;;;;0.32;0.28;;;19.30;52.80;;;;;;4903039;29;20653;-34
2022/09/02 02:30:25;;;;;;;0.73;0.28;;;19.30;52.80;;;;;;4892673;29;20196;-34
2022/09/02 02:32:56;;;;;;;0.47;0.30;;;19.30;52.80;;;;;;4891577;29;20204;-34
2022/09/02 02:35:27;;;;;;;0.30;0.30;;;19.30;52.80;;;;;;4893045;29;20237;-35
2022/09/02 02:37:59;;;;;;;0.57;0.30;;;19.30;52.70;;;;;;4892680;29;20244;-37
2022/09/02 02:40:30;;;;;;;0.55;0.30;;;19.30;52.70;;;;;;4891517;29;20217;-36
2022/09/02 02:43:01;;;;;;;0.40;0.20;;;19.30;52.70;;;;;;4897014;29;20199;-34
2022/09/02 02:45:34;;;;;;;0.20;0.20;;;19.30;52.70;;;;;;4912245;29;20220;-35
2022/09/02 02:48:05;;;;;;;0.43;0.20;;;19.30;52.70;;;;;;4898375;29;20200;-34
2022/09/02 02:50:36;;;;;;;0.25;0.20;;;19.30;52.70;;;;;;4893873;29;20201;-43
2022/09/02 02:53:08;;;;;;;1.08;0.40;;;19.30;52.70;;;;;;4892569;29;20204;-36
2022/09/02 02:55:39;;;;;;;0.43;0.32;;;19.30;52.70;;;;;;4892601;29;20229;-39
2022/09/02 02:58:10;;;;;;;1.15;0.30;;;19.40;52.70;;;;;;4893581;29;20221;-35
2022/09/02 03:00:42;;;;;;;0.68;0.40;;;19.40;52.60;;;;;;4893339;29;20236;-39
2022/09/02 03:03:13;;;;;;;0.90;0.50;;;19.40;52.50;;;;;;4892883;29;20201;-35
2022/09/02 03:05:44;;;;;;;1.50;0.40;;;19.40;52.60;;;;;;4895572;29;20228;-34
2022/09/02 03:08:19;;;;;;;0.50;0.40;;;19.40;52.50;;;;;;4893432;29;20572;-35
2022/09/02 03:10:53;;;;;;;0.88;0.52;;;19.40;52.50;;;;;;4893223;29;20456;-34
2022/09/02 03:13:24;;;;;;;0.77;0.50;;;19.40;53.10;;;;;;4893530;29;20661;-34
2022/09/02 03:15:55;;;;;;;2.55;0.57;;;19.40;52.40;;;;;;4892970;29;20724;-34
2022/09/02 03:18:26;;;;;;;0.52;0.50;;;19.40;52.40;;;;;;4887343;29;20204;-47
2022/09/02 03:20:56;;;;;;;0.55;0.50;;;19.40;52.40;;;;;;4881484;29;20253;-37
2022/09/02 03:23:29;;;;;;;0.45;0.45;;;19.40;52.40;;;;;;4897967;29;20201;-45
2022/09/02 03:26:00;;;;;;;0.77;0.57;;;19.40;52.40;;;;;;4897073;29;20212;-38
2022/09/02 03:28:31;;;;;;;0.47;0.40;;;19.40;52.40;;;;;;4896341;29;20193;-53
2022/09/02 03:31:02;;;;;;;0.85;0.50;;;19.40;52.40;;;;;;4897611;29;20257;-44
2022/09/02 03:33:33;;;;;;;0.50;0.50;;;19.40;52.40;;;;;;4896629;29;20197;-41
2022/09/02 03:36:04;;;;;;;0.82;0.50;;;19.40;52.40;;;;;;4893052;29;20224;-37
2022/09/02 03:38:37;;;;;;;1.02;0.45;;;19.40;52.40;;;;;;4898458;29;20201;-50
2022/09/02 03:41:08;;;;;;;0.50;0.40;;;19.40;52.40;;;;;;4896619;29;20315;-55
2022/09/02 03:43:39;;;;;;;0.70;0.50;;;19.40;52.40;;;;;;4898638;29;20661;-48
2022/09/02 03:46:10;;;;;;;0.70;0.70;;;19.40;52.40;;;;;;4890916;29;20697;-37
2022/09/02 03:48:41;;;;;;;0.50;0.50;;;19.40;52.40;;;;;;4884983;29;20193;-58
2022/09/02 03:51:11;;;;;;;0.70;0.60;;;19.40;52.40;;;;;;4897370;29;20209;-43
2022/09/02 03:53:44;;;;;;;0.57;0.50;;;19.40;52.30;;;;;;4896623;29;20197;-50
2022/09/02 03:56:16;;;;;;;0.93;0.52;;;19.40;52.30;;;;;;4915039;23;20235;-42
2022/09/02 03:58:48;;;;;;;0.60;0.50;;;19.40;52.40;;;;;;4900779;29;20201;-41
2022/09/02 04:01:21;;;;;;;0.63;0.50;;;19.40;52.30;;;;;;4896633;29;20620;-37
2022/09/02 04:03:52;;;;;;;0.68;0.63;;;19.40;52.30;;;;;;4896562;29;20204;-41
2022/09/02 04:06:25;;;;;;;0.50;0.50;;;19.40;52.20;;;;;;4896125;29;20283;-35
2022/09/02 04:08:57;;;;;;;0.65;0.50;;;19.40;52.30;;;;;;4892961;29;20197;-34
2022/09/02 04:11:28;;;;;;;0.90;0.50;;;19.40;52.20;;;;;;4872669;29;20607;-35
2022/09/02 04:13:59;;;;;;;0.50;0.50;;;19.40;52.10;;;;;;4875618;29;20201;-34
2022/09/02 04:16:30;;;;;;;1.05;0.70;;;19.40;52.10;;;;;;4896072;29;20197;-37
2022/09/02 04:19:02;;;;;;;1.77;0.70;;;19.40;52.10;;;;;;4895512;29;20661;-46
2022/09/02 04:21:36;;;;;;;0.60;0.60;;;19.40;52.10;;;;;;4895740;29;20288;-34
2022/09/02 04:24:10;;;;;;;0.98;0.60;;;19.40;52.10;;;;;;4895054;29;20220;-36
2022/09/02 04:26:41;;;;;;;0.50;0.40;;;19.40;52.20;;;;;;4896121;29;20200;-35
2022/09/02 04:29:11;;;;;;;0.60;0.60;;;19.40;52.10;;;;;;4889010;29;20391;-33
2022/09/02 04:31:42;;;;;;;0.95;0.60;;;19.40;52.20;;;;;;4884965;29;20658;-40
2022/09/02 04:34:13;;;;;;;0.65;0.60;;;19.40;52.10;;;;;;4879736;29;20201;-35
2022/09/02 04:36:43;;;;;;;0.88;0.60;;;19.40;52.00;;;;;;4859246;29;20198;-37
2022/09/02 04:39:16;;;;;;;0.85;0.75;;;19.40;52.00;;;;;;4880492;29;20534;-34
2022/09/02 04:41:47;;;;;;;2.25;0.70;;;19.40;52.00;;;;;;4896098;29;20244;-35
2022/09/02 04:44:17;;;;;;;1.48;0.55;;;19.40;52.00;;;;;;4895325;29;20212;-34
2022/09/02 04:46:48;;;;;;;0.88;0.70;;;19.40;52.00;;;;;;4896136;29;20208;-40
2022/09/02 04:49:19;;;;;;;0.60;0.60;;;19.40;52.00;;;;;;4895755;29;20653;-34
2022/09/02 04:51:50;;;;;;;0.50;0.50;;;19.40;52.00;;;;;;4891920;29;20210;-41
2022/09/02 04:54:22;;;;;;;0.80;0.50;;;19.40;52.00;;;;;;4884588;29;20197;-35
2022/09/02 04:56:53;;;;;;;0.50;0.50;;;19.40;52.00;;;;;;4917755;23;20235;-35
2022/09/02 04:59:24;;;;;;;1.98;0.75;;;19.40;52.00;;;;;;4907738;29;20196;-47
2022/09/02 05:01:55;;;;;;;0.75;0.60;;;19.40;52.00;;;;;;4908806;29;20967;-37
2022/09/02 05:04:25;;;;;;;0.70;0.70;;;19.40;51.90;;;;;;4902047;29;20728;-42
2022/09/02 05:06:59;;;;;;;0.60;0.60;;;19.40;51.90;;;;;;4894555;29;20590;-49
2022/09/02 05:09:32;;;;;;;1.17;0.60;;;19.40;51.80;;;;;;4895695;29;20706;-36
2022/09/02 05:12:03;;;;;;;0.60;0.60;;;19.40;51.80;;;;;;4894576;29;20676;-35
2022/09/02 05:14:34;;;;;;;3.72;0.82;;;19.40;51.90;;;;;;4894280;29;20213;-40
2022/09/02 05:17:04;;;;;;;1.05;0.70;;;19.40;51.90;;;;;;4894316;29;20207;-53
2022/09/02 05:19:35;;;;;;;0.60;0.50;;;19.40;51.90;;;;;;4904029;29;20208;-35
2022/09/02 05:22:06;;;;;;;1.15;0.70;;;19.40;51.80;;;;;;4914443;29;20235;-37
2022/09/02 05:24:38;;;;;;;0.60;0.60;;;19.40;51.80;;;;;;4913671;29;20234;-47
2022/09/02 05:27:09;;;;;;;0.70;0.60;;;19.40;51.80;;;;;;4914002;29;20203;-36
2022/09/02 05:29:40;;;;;;;0.70;0.60;;;19.40;52.50;;;;;;4913890;29;20196;-44
2022/09/02 05:32:11;;;;;;;1.48;0.65;;;19.40;51.90;;;;;;4914148;29;20204;-47
2022/09/02 05:34:41;;;;;;;1.52;0.60;;;19.40;51.90;;;;;;4913633;29;20227;-52
2022/09/02 05:37:12;;;;;;;0.60;0.50;;;19.40;51.80;;;;;;4914079;29;20227;-34
2022/09/02 05:39:45;;;;;;;0.85;0.60;;;19.40;51.80;;;;;;4895591;29;20584;-54
2022/09/02 05:42:15;;;;;;;0.65;0.60;;;19.50;51.70;;;;;;4889060;29;20225;-38
2022/09/02 05:44:46;;;;;;;0.82;0.68;;;19.50;51.70;;;;;;4902986;29;20223;-36
2022/09/02 05:47:17;;;;;;;0.77;0.68;;;19.50;51.70;;;;;;4894594;29;20200;-35
2022/09/02 05:49:48;;;;;;;0.60;0.60;;;19.50;51.70;;;;;;4895283;29;20196;-50
2022/09/02 05:52:21;;;;;;;1.48;0.73;;;19.40;51.60;;;;;;4894661;29;20208;-36
2022/09/02 05:54:54;;;;;;;1.67;0.60;;;19.50;51.80;;;;;;4895209;29;20224;-39
2022/09/02 05:57:25;;;;;;;1.10;0.65;;;19.40;51.80;;;;;;4919966;23;20243;-48
2022/09/02 05:59:56;;;;;;;0.90;0.57;;;19.50;51.80;;;;;;4912732;29;20196;-37
2022/09/02 06:02:27;;;;;;;1.20;0.63;;;19.50;51.70;;;;;;4912344;29;20228;-45
2022/09/02 06:04:58;;;;;;;0.98;0.52;;;19.40;51.70;;;;;;4912570;29;20224;-34
2022/09/02 06:07:28;;;;;;;0.70;0.50;;;19.50;51.70;;;;;;4912723;29;20197;-34
2022/09/02 06:10:01;;;;;;;1.08;0.70;;;19.40;51.70;;;;;;4893927;29;20205;-36
2022/09/02 06:12:32;;;;;;;0.93;0.73;;;19.50;51.70;;;;;;4894117;29;20212;-33
2022/09/02 06:15:03;;;;;;;1.00;0.60;;;19.50;52.30;;;;;;4893971;29;20224;-34
2022/09/02 06:17:33;;;;;;;0.70;0.70;;;19.50;51.70;;;;;;4894116;29;20257;-34
2022/09/02 06:20:05;;;;;;;0.75;0.75;;;19.50;51.70;;;;;;4893746;29;20212;-35
2022/09/02 06:22:35;;;;;;;1.45;0.60;;;19.40;51.60;;;;;;4894186;29;20254;-34
2022/09/02 06:25:08;;;;;;;1.15;0.70;;;19.40;51.70;;;;;;4893678;29;20228;-34
2022/09/02 06:27:40;;;;;;;1.35;0.75;;;19.40;51.70;;;;;;4893902;29;20201;-35
2022/09/02 06:30:12;;;;;;;1.08;0.60;;;19.40;51.70;;;;;;4893765;29;20204;-34
2022/09/02 06:32:43;;;;;;;1.92;0.90;;;19.40;51.80;;;;;;4893946;29;20201;-34
2022/09/02 06:35:13;;;;;;;1.08;0.60;;;19.40;51.80;;;;;;4893891;29;20220;-34
2022/09/02 06:37:44;;;;;;;1.58;0.77;;;19.40;51.80;;;;;;4893228;29;20201;-34
2022/09/02 06:40:18;;;;;;;2.25;0.90;;;19.40;51.80;;;;;;4892991;29;20201;-36
2022/09/02 06:42:49;;;;;;;2.67;0.90;;;19.40;51.70;;;;;;4895757;29;20636;-33
2022/09/02 06:45:19;;;;;;;1.67;0.90;;;19.40;51.70;;;;;;4912391;29;20219;-34
2022/09/02 06:47:50;;;;;;;1.65;0.88;;;19.40;51.70;;;;;;4911789;29;20212;-35
2022/09/02 06:50:21;;;;;;;5.28;1.10;;;19.40;51.70;;;;;;4911759;29;20207;-33
2022/09/02 06:52:52;;;;;;;2.70;0.88;;;19.40;51.70;;;;;;4911943;29;20210;-33
2022/09/02 06:58:05;;;;;;;1.77;0.85;;;19.30;51.70;;;;;;4894702;29;20208;-34
2022/09/02 07:00:36;;;;;;;3.03;1.13;;;19.30;51.70;;;;;;4896230;29;20204;-37
2022/09/02 07:06:08;;;;;;;2.05;1.00;;;19.30;51.70;;;;;;4908144;29;20222;-54
2022/09/02 07:08:39;;;;;;;2.95;1.10;;;19.30;51.70;;;;;;4905408;29;20264;-39
2022/09/02 07:11:17;;;;;;;1.60;0.73;;;19.30;51.70;;;;;;4895502;29;20201;-41
2022/09/02 07:13:50;;;;;;;3.67;1.20;;;19.30;51.70;;;;;;4896023;29;20252;-40
2022/09/02 07:16:21;;;;;;;2.33;1.15;;;19.30;51.70;;;;;;4895929;29;20221;-43
2022/09/02 07:18:51;;;;;;;1.55;0.82;;;19.30;51.70;;;;;;4895783;29;20205;-42
2022/09/02 07:21:22;;;;;;;1.98;0.95;;;19.30;51.80;;;;;;4895605;29;20681;-36
2022/09/02 07:23:53;;;;;;;1.60;0.95;;;19.30;51.80;;;;;;4896093;29;20677;-35
2022/09/02 07:26:24;;;;;;;1.48;0.88;;;19.30;51.90;;;;;;4877541;29;20217;-46
2022/09/02 07:28:57;;;;;;;1.30;0.80;;;19.30;51.90;;;;;;4877551;29;20658;-41
2022/09/02 07:31:28;;;;;;;2.97;1.13;;;19.30;52.00;;;;;;4877964;29;20712;-40
2022/09/02 07:33:59;;;;;;;1.50;0.98;;;19.30;52.00;;;;;;4883109;29;20560;-37
2022/09/02 07:36:30;;;;;;;0.80;0.75;;;19.30;52.00;;;;;;4896745;29;20592;-35
2022/09/02 07:39:00;;;;;;;1.85;1.00;;;19.20;51.90;;;;;;4895959;29;20216;-38
2022/09/02 07:41:31;;;;;;;1.75;1.08;;;19.30;52.50;;;;;;4877716;29;20570;-44
2022/09/02 07:44:04;;;;;;;2.28;0.82;;;19.30;52.00;;;;;;4901541;29;20755;-45
2022/09/02 07:46:36;;;;;;;2.08;1.05;;;19.20;51.90;;;;;;4915033;29;20212;-46
2022/09/02 07:49:08;;;;;;;1.08;0.80;;;19.20;52.00;;;;;;4915096;29;20249;-37
2022/09/02 07:51:42;;;;;;;2.40;1.00;;;19.20;52.00;;;;;;4915081;29;20203;-57
2022/09/02 07:54:14;;;;;;;0.90;0.73;;;19.20;52.10;;;;;;4913238;29;20648;-42
2022/09/02 08:56:20;;;;;;;0.77;0.77;;;18.90;52.50;;;;;;5685465;23;20223;-34
2022/09/02 08:58:55;;;;;;;1.50;0.80;;;18.90;52.50;;;;;;4932509;29;20210;-34
2022/09/02 09:01:34;;;;;;;1.20;0.90;;;18.90;52.60;;;;;;4935165;29;20250;-36
2022/09/02 09:04:33;;;;;;;2.22;0.88;;;18.80;52.50;;;;;;4932408;29;20234;-34
2022/09/02 09:07:26;;;;;;;2.05;0.98;;;18.80;52.60;;;;;;4912199;29;20215;-34
2022/09/02 09:10:11;;;;;;;1.58;0.85;;;18.80;52.50;;;;;;4894450;29;20197;-34
2022/09/02 09:13:04;;;;;;;1.30;0.90;;;18.80;52.50;;;;;;4907905;29;20220;-42
2022/09/02 09:15:47;;;;;;;1.17;0.70;;;18.80;52.50;;;;;;4913060;29;20247;-42
2022/09/02 09:18:21;;;;;;;1.13;0.90;;;18.90;52.50;;;;;;4912533;29;20660;-43
2022/09/02 09:20:51;;;;;;;1.23;0.65;;;18.80;52.50;;;;;;4912728;29;20679;-43
2022/09/02 09:23:32;;;;;;;2.53;0.85;;;18.80;52.60;;;;;;4912986;29;20604;-43
2022/09/02 09:26:10;;;;;;;2.47;0.95;;;18.80;52.60;;;;;;4912858;29;20247;-41
2022/09/02 09:28:46;;;;;;;0.73;0.65;;;18.80;52.60;;;;;;4894744;29;20286;-43
2022/09/02 09:31:20;;;;;;;1.60;0.90;;;18.70;52.60;;;;;;4894500;29;20569;-43
2022/09/02 09:34:01;;;;;;;1.42;0.70;;;18.70;52.70;;;;;;4894780;29;20201;-42
2022/09/02 09:36:52;;;;;;;1.23;0.65;;;18.70;52.70;;;;;;4894147;29;20827;-46
2022/09/02 09:39:30;;;;;;;0.82;0.68;;;18.70;52.70;;;;;;4909469;29;20204;-43
2022/09/02 09:42:02;;;;;;;0.95;0.70;;;18.70;52.60;;;;;;4913012;29;20200;-43
2022/09/02 09:44:43;;;;;;;1.10;0.77;;;18.70;52.60;;;;;;4929335;29;20215;-43
2022/09/02 09:47:18;;;;;;;1.08;0.70;;;18.70;52.60;;;;;;4932358;29;20221;-42
2022/09/02 09:49:50;;;;;;;0.77;0.70;;;18.70;52.60;;;;;;4932121;29;20250;-43
2022/09/02 09:52:28;;;;;;;1.60;0.90;;;18.70;52.60;;;;;;4932086;29;20203;-44
2022/09/02 09:55:14;;;;;;;0.80;0.77;;;18.70;52.70;;;;;;4931624;29;20219;-43
2022/09/02 09:57:46;;;;;;;1.10;0.70;;;18.70;52.70;;;;;;4927130;23;20231;-47
2022/09/02 10:00:23;;;;;;;1.63;0.80;;;18.70;52.70;;;;;;4912957;29;20226;-35
2022/09/02 10:02:57;;;;;;;2.67;0.82;;;18.70;52.80;;;;;;4912712;29;20227;-35
2022/09/02 10:05:36;;;;;;;1.65;0.90;;;18.70;52.80;;;;;;4890304;29;20225;-35
2022/09/02 10:08:20;;;;;;;1.10;0.80;;;18.70;52.70;;;;;;4880287;29;20224;-45
2022/09/02 10:11:00;;;;;;;1.13;0.75;;;18.70;52.70;;;;;;4871769;29;20198;-54
2022/09/02 10:13:33;;;;;;;1.50;0.90;;;18.70;52.70;;;;;;4874830;29;20205;-44
2022/09/02 10:16:21;;;;;;;1.35;0.95;;;18.70;52.60;;;;;;4875687;29;20221;-41
2022/09/02 10:18:56;;;;;;;1.10;0.80;;;18.70;52.70;;;;;;4876581;29;20225;-41
2022/09/02 10:21:44;;;;;;;1.00;0.80;;;18.70;52.60;;;;;;4875753;29;20764;-54
2022/09/02 10:24:29;;;;;;;1.95;0.90;;;18.60;52.70;;;;;;4876262;29;20229;-50
2022/09/02 10:27:01;;;;;;;1.45;0.70;;;18.60;52.70;;;;;;4875637;29;20244;-36
2022/09/02 10:30:02;;;;;;;1.27;0.88;;;18.60;52.70;;;;;;4879154;29;20205;-36
2022/09/02 10:32:46;;;;;;;1.33;1.10;;;18.60;52.80;;;;;;4880156;29;20200;-35
2022/09/02 10:35:26;;;;;;;1.42;0.80;;;18.60;52.80;;;;;;4879216;29;20228;-35
2022/09/02 10:38:09;;;;;;;1.63;0.93;;;18.60;52.80;;;;;;4879652;29;20237;-47
2022/09/02 10:40:48;;;;;;;0.80;0.80;;;18.60;52.80;;;;;;4879845;29;20205;-52
2022/09/02 10:43:31;;;;;;;1.20;0.65;;;18.60;52.80;;;;;;4876802;29;20229;-40
2022/09/02 10:46:06;;;;;;;1.38;0.70;;;18.60;52.80;;;;;;4871085;29;20225;-37
2022/09/02 10:48:49;;;;;;;1.77;0.95;;;18.60;52.80;;;;;;4878871;29;20673;-34
2022/09/02 10:51:29;;;;;;;0.98;0.88;;;18.60;52.70;;;;;;4860838;29;20206;-44
2022/09/02 10:54:13;;;;;;;0.88;0.68;;;18.60;52.70;;;;;;4876065;29;20205;-44
2022/09/02 10:56:52;;;;;;;1.23;0.73;;;18.60;52.80;;;;;;4904276;23;20227;-39
2022/09/02 10:59:27;;;;;;;1.25;0.65;;;18.60;52.80;;;;;;4899180;29;20871;-34
2022/09/02 11:02:02;;;;;;;1.00;0.68;;;18.50;52.80;;;;;;4898084;29;20208;-35
2022/09/02 11:04:41;;;;;;;1.95;0.90;;;18.50;52.90;;;;;;4897203;29;20243;-34
2022/09/02 11:07:18;;;;;;;1.42;0.80;;;18.50;52.90;;;;;;4896561;29;20200;-34
2022/09/02 11:09:54;;;;;;;1.70;0.82;;;18.50;52.90;;;;;;4900559;29;20264;-34
2022/09/02 11:12:29;;;;;;;1.25;0.75;;;18.50;52.90;;;;;;4898539;29;20280;-38
2022/09/02 11:15:10;;;;;;;1.00;0.65;;;18.50;52.90;;;;;;4916201;29;20226;-35
2022/09/02 11:17:45;;;;;;;0.85;0.68;;;18.50;52.90;;;;;;4902580;29;20205;-34
2022/09/02 11:20:33;;;;;;;2.35;0.75;;;18.50;52.90;;;;;;4892373;29;20196;-34
2022/09/02 11:23:09;;;;;;;0.80;0.60;;;18.50;52.90;;;;;;4888246;29;20229;-38
2022/09/02 11:25:44;;;;;;;1.17;0.70;;;18.50;52.80;;;;;;4897104;29;20224;-34
2022/09/02 11:28:31;;;;;;;1.05;0.85;;;18.50;52.90;;;;;;4897175;29;20228;-34
2022/09/02 11:31:08;;;;;;;1.23;0.90;;;18.50;52.90;;;;;;4894696;29;20200;-34
2022/09/02 11:33:50;;;;;;;0.73;0.70;;;18.50;52.90;;;;;;4896749;29;20208;-34
2022/09/02 11:36:23;;;;;;;0.90;0.60;;;18.40;52.90;;;;;;4895552;29;20541;-34
2022/09/02 11:38:56;;;;;;;1.13;0.68;;;18.40;53.00;;;;;;4896162;29;20201;-34
2022/09/02 11:41:49;;;;;;;1.92;0.90;;;18.40;53.00;;;;;;4895514;29;20212;-33
2022/09/02 11:44:49;;;;;;;1.55;0.80;;;18.40;53.00;;;;;;4892086;29;20232;-36
2022/09/02 11:47:42;;;;;;;0.73;0.60;;;18.40;52.90;;;;;;4896064;29;20213;-33
2022/09/02 11:50:47;;;;;;;1.52;0.70;;;18.40;52.90;;;;;;4896108;29;20208;-33
2022/09/02 11:53:32;;;;;;;0.80;0.60;;;18.40;52.90;;;;;;4893692;29;20223;-34
2022/09/02 11:56:06;;;;;;;0.95;0.77;;;18.40;52.80;;;;;;4896284;29;20217;-34
2022/09/02 11:58:39;;;;;;;0.80;0.80;;;18.40;52.90;;;;;;4896687;29;20684;-36
2022/09/02 12:01:26;;;;;;;1.13;0.90;;;18.40;52.90;;;;;;4897133;29;20197;-33
2022/09/02 12:04:02;;;;;;;1.10;0.80;;;18.40;53.00;;;;;;4897205;29;20228;-33
2022/09/02 12:06:33;;;;;;;1.45;0.88;;;18.40;53.00;;;;;;4897327;29;20212;-33
2022/09/02 12:09:09;;;;;;;1.33;0.85;;;18.30;53.00;;;;;;4896038;29;20197;-36
2022/09/02 12:11:54;;;;;;;1.23;0.60;;;18.30;53.00;;;;;;4895763;29;20203;-34
2022/09/02 12:15:11;;;;;;;0.55;0.55;;;18.30;53.00;;;;;;4895434;29;21603;-33
2022/09/02 12:18:03;;;;;;;0.65;0.60;;;18.30;53.00;;;;;;4894675;29;20201;-33
2022/09/02 12:21:09;;;;;;;1.38;0.90;;;18.30;53.00;;;;;;4886513;29;20668;-34
2022/09/02 12:24:13;;;;;;;0.80;0.70;;;18.30;53.00;;;;;;4895573;29;20700;-33
2022/09/02 12:27:07;;;;;;;1.63;0.70;;;18.30;53.00;;;;;;4895711;29;20212;-34
2022/09/02 12:29:39;;;;;;;0.90;0.43;;;18.30;53.00;;;;;;4895845;29;20201;-34
2022/09/02 12:32:11;;;;;;;0.60;0.57;;;18.30;53.00;;;;;;4891944;29;20752;-34
2022/09/02 12:35:08;;;;;;;0.65;0.65;;;18.30;53.10;;;;;;4876186;29;20237;-34
2022/09/02 12:37:56;;;;;;;1.58;0.70;;;18.20;53.10;;;;;;4877058;29;20201;-33
2022/09/02 12:40:34;;;;;;;0.80;0.77;;;18.20;53.10;;;;;;4895070;29;20662;-33
2022/09/02 12:43:15;;;;;;;1.15;0.82;;;18.20;53.10;;;;;;4895061;29;20296;-33
2022/09/02 12:45:47;;;;;;;1.33;0.80;;;18.20;53.10;;;;;;4895196;29;20216;-34
2022/09/02 12:48:21;;;;;;;0.85;0.60;;;18.20;53.10;;;;;;4894201;29;20224;-33
2022/09/02 12:50:56;;;;;;;0.50;0.50;;;18.20;53.10;;;;;;4891846;29;20193;-33
2022/09/02 12:53:38;;;;;;;1.15;0.60;;;18.20;53.10;;;;;;4895457;29;20213;-33
2022/09/02 12:56:23;;;;;;;2.15;0.60;;;18.20;53.00;;;;;;4895372;29;20228;-38
2022/09/02 12:58:59;;;;;;;0.70;0.60;;;18.20;53.00;;;;;;4894844;29;20201;-39
2022/09/02 13:01:43;;;;;;;1.15;0.80;;;18.20;53.10;;;;;;4894642;29;20203;-42
2022/09/02 13:04:31;;;;;;;1.20;0.70;;;18.20;53.10;;;;;;4877089;29;20233;-43
2022/09/02 13:07:29;;;;;;;1.67;0.80;;;18.20;53.20;;;;;;4876339;29;20205;-42
2022/09/02 13:10:28;;;;;;;1.17;0.60;;;18.10;53.10;;;;;;4894771;29;20212;-42
2022/09/02 13:13:44;;;;;;;0.90;0.68;;;18.10;53.10;;;;;;4894470;29;20802;-43
2022/09/02 13:16:19;;;;;;;0.85;0.60;;;18.10;53.20;;;;;;4896872;29;20357;-34
2022/09/02 13:19:15;;;;;;;0.60;0.52;;;18.10;53.10;;;;;;4893661;29;20232;-33
2022/09/02 13:22:14;;;;;;;0.70;0.57;;;18.10;53.20;;;;;;4893967;29;20261;-37
2022/09/02 13:25:31;;;;;;;0.57;0.40;;;18.10;53.10;;;;;;4885415;29;20225;-35
2022/09/02 13:28:32;;;;;;;0.55;0.50;;;18.10;53.10;;;;;;4894643;29;20204;-33
2022/09/02 13:31:15;;;;;;;1.08;0.63;;;18.10;53.10;;;;;;4894210;29;20679;-34
2022/09/02 13:33:47;;;;;;;0.70;0.60;;;18.10;53.10;;;;;;4881536;29;20265;-34
2022/09/02 13:36:27;;;;;;;1.25;0.50;;;18.10;53.20;;;;;;4875820;29;20222;-33
2022/09/02 13:38:58;;;;;;;0.70;0.70;;;18.10;53.30;;;;;;4887004;29;20735;-34
2022/09/02 13:41:33;;;;;;;0.90;0.80;;;18.00;53.20;;;;;;4894114;29;20197;-33
2022/09/02 13:44:13;;;;;;;1.08;0.68;;;18.00;53.20;;;;;;4894101;29;20743;-34
2022/09/02 13:46:49;;;;;;;0.98;0.60;;;18.00;53.20;;;;;;4893735;29;20204;-34
2022/09/02 13:49:28;;;;;;;0.50;0.50;;;18.00;53.30;;;;;;4893224;29;20232;-35
2022/09/02 13:51:59;;;;;;;0.68;0.55;;;18.00;53.20;;;;;;4893919;29;20209;-39
2022/09/02 13:54:35;;;;;;;1.00;0.82;;;18.00;53.30;;;;;;4894166;29;20220;-35
2022/09/02 13:57:08;;;;;;;0.68;0.52;;;18.00;53.20;;;;;;4905764;23;20240;-48
2022/09/02 13:59:42;;;;;;;0.80;0.70;;;18.00;53.20;;;;;;4893762;29;20197;-40
2022/09/02 14:02:33;;;;;;;0.80;0.70;;;18.00;53.20;;;;;;4893337;29;20200;-51
2022/09/02 14:05:08;;;;;;;0.60;0.60;;;18.00;53.20;;;;;;4866993;29;20710;-41
2022/09/02 14:07:42;;;;;;;0.65;0.60;;;18.00;53.20;;;;;;4857366;29;20595;-39
2022/09/02 14:10:17;;;;;;;0.82;0.50;;;18.00;53.30;;;;;;4874948;29;20216;-48
2022/09/02 14:12:49;;;;;;;0.73;0.60;;;18.00;53.30;;;;;;4874873;29;20204;-45
2022/09/02 14:15:27;;;;;;;0.70;0.55;;;18.00;53.30;;;;;;4875034;29;20248;-35
2022/09/02 14:18:17;;;;;;;0.70;0.70;;;18.00;53.30;;;;;;4874825;29;20206;-40
2022/09/02 14:21:02;;;;;;;0.63;0.60;;;17.90;53.30;;;;;;4875015;29;20198;-47
2022/09/02 14:23:34;;;;;;;0.55;0.55;;;18.00;53.30;;;;;;4875365;29;20209;-39
2022/09/02 14:26:05;;;;;;;0.52;0.52;;;18.00;53.30;;;;;;4874956;29;20263;-40
2022/09/02 14:28:37;;;;;;;0.82;0.60;;;18.00;53.30;;;;;;4875061;29;20206;-54
2022/09/02 14:31:24;;;;;;;0.85;0.60;;;18.00;53.30;;;;;;4874898;29;20669;-49
2022/09/02 14:33:56;;;;;;;0.82;0.50;;;18.00;53.30;;;;;;4874492;29;20568;-55
2022/09/02 14:36:49;;;;;;;0.60;0.60;;;18.00;53.30;;;;;;4875025;29;20222;-40
2022/09/02 14:39:22;;;;;;;0.80;0.50;;;18.00;53.40;;;;;;4873972;29;20209;-39
2022/09/02 14:41:55;;;;;;;0.82;0.60;;;17.90;53.30;;;;;;4874935;29;20237;-36
2022/09/02 14:44:31;;;;;;;0.63;0.50;;;17.90;53.40;;;;;;4874787;29;20248;-50
2022/09/02 14:47:05;;;;;;;1.45;0.57;;;17.90;53.40;;;;;;4874747;29;20279;-34
2022/09/02 14:49:38;;;;;;;0.80;0.70;;;17.90;53.40;;;;;;4872494;29;20201;-51
2022/09/02 14:52:19;;;;;;;0.60;0.40;;;17.90;53.40;;;;;;4874588;29;20258;-39
2022/09/02 14:54:52;;;;;;;0.63;0.57;;;17.90;53.40;;;;;;4874527;29;20234;-41
2022/09/02 14:57:28;;;;;;;0.60;0.60;;;17.90;53.40;;;;;;4916237;23;20496;-34
2022/09/02 15:00:09;;;;;;;0.68;0.43;;;17.90;53.40;;;;;;4930998;29;20230;-35